Ashton Green, United Kingdom
Current Conditions -  °F | °C
As of 6:50 AM on Thursday 23 Oct 2014 (Local Time) from EGKK Reporting Station
Broken Clouds Broken Clouds  
Wind Chill: 54°   Ceiling: 3100
Heat Index: 54°   Visibility: 6mi
Dew Point: 45°   Wind: 7mph
Humidity: 72%   Direction: 220°SW
Pressure: 30.18"   Gusts: NA
Location:  50.94°N, 0.02°W
Report Text: EGKK 230550Z 22006KT 9999 BKN031 12/07 Q1022
Loading
Personal Weather Stations






























Interactive Weather Map
Tropical Storm Tracking
New forecast layout! Learn more

10-Day Weather Forecast

Advertisements
Track Severe Weather on mobile